createdAt,value
2018-08-24T00:00:13.189Z,26.13
2018-08-24T00:01:13.184Z,26.16
2018-08-24T00:02:13.222Z,26.15
2018-08-24T00:03:13.206Z,26.16
2018-08-24T00:04:13.244Z,26.15
2018-08-24T00:05:13.240Z,26.18
2018-08-24T00:06:13.249Z,26.15
2018-08-24T00:07:13.324Z,26.08
2018-08-24T00:08:13.287Z,26.06
2018-08-24T00:09:13.313Z,26.07
2018-08-24T00:10:13.305Z,26.01
2018-08-24T00:11:13.367Z,26.03
2018-08-24T00:12:13.405Z,26.01
2018-08-24T00:13:13.360Z,26.08
2018-08-24T00:14:13.382Z,26.04
2018-08-24T00:15:13.373Z,26.01
2018-08-24T00:16:13.403Z,26.01
2018-08-24T00:17:13.435Z,25.99
2018-08-24T00:18:13.433Z,25.98
2018-08-24T00:19:13.518Z,25.99
2018-08-24T00:20:13.464Z,25.98
2018-08-24T00:21:13.479Z,25.95
2018-08-24T00:22:13.488Z,25.96
2018-08-24T00:23:13.483Z,25.91
2018-08-24T00:24:13.519Z,25.99
2018-08-24T00:25:13.545Z,26.01
2018-08-24T00:26:13.572Z,25.86
2018-08-24T00:27:13.560Z,26.03
2018-08-24T00:28:13.578Z,25.93
2018-08-24T00:29:13.566Z,25.98
2018-08-24T00:30:13.618Z,25.96
2018-08-24T00:31:13.631Z,25.93
2018-08-24T00:32:13.676Z,25.99
2018-08-24T00:33:13.742Z,25.99
2018-08-24T00:34:13.644Z,25.86
2018-08-24T00:35:13.663Z,25.85
2018-08-24T00:36:13.697Z,25.85
2018-08-24T00:37:13.725Z,25.86
2018-08-24T00:38:13.729Z,25.83
2018-08-24T00:39:13.723Z,25.81
2018-08-24T00:40:13.747Z,25.83
2018-08-24T00:41:13.773Z,25.86
2018-08-24T00:42:13.765Z,25.85
2018-08-24T00:43:13.794Z,25.77
2018-08-24T00:44:13.799Z,25.76
2018-08-24T00:45:13.805Z,25.77
2018-08-24T00:46:13.814Z,25.77
2018-08-24T00:47:13.856Z,25.78
2018-08-24T00:48:13.874Z,25.71
2018-08-24T00:49:13.842Z,25.74
2018-08-24T00:50:13.866Z,25.74
2018-08-24T00:51:13.892Z,25.73
2018-08-24T00:52:13.921Z,25.74
2018-08-24T00:53:13.900Z,25.76
2018-08-24T00:54:13.937Z,25.73
2018-08-24T00:55:13.935Z,25.73
2018-08-24T00:56:13.941Z,25.77
2018-08-24T00:57:14.047Z,25.71
2018-08-24T00:58:13.967Z,25.68
2018-08-24T00:59:13.999Z,25.76
2018-08-24T01:00:14.030Z,25.63
2018-08-24T01:01:14.021Z,25.62
2018-08-24T01:02:14.068Z,25.67
2018-08-24T01:03:14.058Z,25.70
2018-08-24T01:04:14.129Z,25.70
2018-08-24T01:05:14.062Z,25.70
2018-08-24T01:06:14.089Z,25.61
2018-08-24T01:07:14.148Z,25.68
2018-08-24T01:08:14.128Z,25.70
2018-08-24T01:09:14.110Z,25.68
2018-08-24T01:10:14.215Z,25.73
2018-08-24T01:11:14.169Z,25.68
2018-08-24T01:12:14.164Z,25.70
2018-08-24T01:13:14.175Z,25.63
2018-08-24T01:14:14.218Z,25.61
2018-08-24T01:15:14.250Z,25.56
2018-08-24T01:16:14.246Z,25.59
2018-08-24T01:17:14.255Z,25.54
2018-08-24T01:18:14.290Z,25.56
2018-08-24T01:19:14.260Z,25.58
2018-08-24T01:20:14.292Z,25.48
2018-08-24T01:21:14.454Z,25.46
2018-08-24T01:22:14.380Z,25.54
2018-08-24T01:23:14.324Z,25.54
2018-08-24T01:24:14.337Z,25.56
2018-08-24T01:25:14.355Z,25.54
2018-08-24T01:26:14.369Z,25.54
2018-08-24T01:27:14.381Z,25.52
2018-08-24T01:28:14.702Z,25.52
2018-08-24T01:29:14.435Z,25.55
2018-08-24T01:30:14.445Z,25.54
2018-08-24T01:31:14.451Z,25.46
2018-08-24T01:32:14.458Z,25.46
2018-08-24T01:33:14.465Z,25.49
2018-08-24T01:34:14.501Z,25.51
2018-08-24T01:35:14.624Z,25.39
2018-08-24T01:36:14.513Z,25.49
2018-08-24T01:37:14.497Z,25.40
2018-08-24T01:38:14.522Z,25.44
2018-08-24T01:39:14.520Z,25.40
2018-08-24T01:40:14.595Z,25.40
2018-08-24T01:41:14.584Z,25.40
2018-08-24T01:42:14.590Z,25.40
2018-08-24T01:43:14.584Z,25.34
2018-08-24T01:44:14.644Z,25.43
2018-08-24T01:45:14.644Z,25.36
2018-08-24T01:46:14.628Z,25.37
2018-08-24T01:47:14.673Z,25.31
2018-08-24T01:48:14.670Z,25.34
2018-08-24T01:49:14.651Z,25.37
2018-08-24T01:50:14.680Z,25.30
2018-08-24T01:51:14.719Z,25.33
2018-08-24T01:52:14.766Z,25.29
2018-08-24T01:53:14.713Z,25.34
2018-08-24T01:54:14.738Z,25.24
2018-08-24T01:55:14.740Z,25.36
2018-08-24T01:56:14.751Z,25.31
2018-08-24T01:57:14.874Z,25.29
2018-08-24T01:58:14.798Z,25.36
2018-08-24T01:59:14.901Z,25.24
2018-08-24T02:00:14.829Z,25.25
2018-08-24T02:01:14.827Z,25.25
2018-08-24T02:02:14.898Z,25.30
2018-08-24T02:03:14.876Z,25.22
2018-08-24T02:04:14.880Z,25.26
2018-08-24T02:05:14.886Z,25.21
2018-08-24T02:06:14.952Z,25.21
2018-08-24T02:07:14.927Z,25.16
2018-08-24T02:08:14.955Z,25.26
2018-08-24T02:09:14.965Z,25.25
2018-08-24T02:10:14.949Z,25.21
2018-08-24T02:11:14.961Z,25.18
2018-08-24T02:12:14.982Z,25.09
2018-08-24T02:13:14.992Z,25.12
2018-08-24T02:14:15.019Z,25.11
2018-08-24T02:15:15.022Z,25.15
2018-08-24T02:16:15.052Z,25.09
2018-08-24T02:17:15.056Z,25.11
2018-08-24T02:18:15.057Z,25.11
2018-08-24T02:19:15.100Z,25.03
2018-08-24T02:20:15.123Z,25.09
2018-08-24T02:21:15.092Z,25.11
2018-08-24T02:22:15.116Z,25.09
2018-08-24T02:23:15.134Z,25.04
2018-08-24T02:24:15.128Z,25.06
2018-08-24T02:25:15.196Z,25.01
2018-08-24T02:26:15.165Z,25.03
2018-08-24T02:27:15.188Z,25.00
2018-08-24T02:28:15.193Z,25.00
2018-08-24T02:29:15.216Z,25.01
2018-08-24T02:30:15.288Z,25.09
2018-08-24T02:31:15.324Z,24.97
2018-08-24T02:32:15.265Z,25.04
2018-08-24T02:33:15.262Z,24.99
2018-08-24T02:34:15.248Z,24.97
2018-08-24T02:35:15.291Z,25.06
2018-08-24T02:36:15.321Z,25.03
2018-08-24T02:37:15.312Z,24.89
2018-08-24T02:38:15.323Z,24.99
2018-08-24T02:39:15.343Z,25.03
2018-08-24T02:40:15.391Z,24.89
2018-08-24T02:41:15.385Z,24.88
2018-08-24T02:42:15.397Z,24.85
2018-08-24T02:43:15.398Z,24.84
2018-08-24T02:44:15.426Z,24.94
2018-08-24T02:45:15.409Z,24.88
2018-08-24T02:46:15.439Z,24.84
2018-08-24T02:47:15.442Z,24.82
2018-08-24T02:48:15.443Z,24.89
2018-08-24T02:49:15.499Z,24.84
2018-08-24T02:50:15.553Z,24.88
2018-08-24T02:51:15.503Z,24.85
2018-08-24T02:52:15.528Z,24.77
2018-08-24T02:53:15.523Z,24.77
2018-08-24T02:54:15.590Z,24.71
2018-08-24T02:55:15.541Z,24.77
2018-08-24T02:56:15.540Z,24.71
2018-08-24T02:57:15.569Z,24.71
2018-08-24T02:58:15.585Z,24.74
2018-08-24T02:59:15.624Z,24.71
2018-08-24T03:00:15.651Z,24.75
2018-08-24T03:01:15.625Z,24.74
2018-08-24T03:02:15.667Z,24.74
2018-08-24T03:03:15.634Z,24.75
2018-08-24T03:04:15.682Z,24.68
2018-08-24T03:05:15.756Z,24.66
2018-08-24T03:06:15.686Z,24.65
2018-08-24T03:07:15.848Z,24.65
2018-08-24T03:08:15.708Z,24.58
2018-08-24T03:09:15.732Z,24.59
2018-08-24T03:10:15.737Z,24.66
2018-08-24T03:11:15.765Z,24.62
2018-08-24T03:12:15.787Z,24.58
2018-08-24T03:13:15.776Z,24.56
2018-08-24T03:14:15.793Z,24.53
2018-08-24T03:15:15.805Z,24.59
2018-08-24T03:16:15.841Z,24.59
2018-08-24T03:17:15.951Z,24.59
2018-08-24T03:18:15.883Z,24.50
2018-08-24T03:19:15.850Z,24.65
2018-08-24T03:20:15.864Z,24.56
2018-08-24T03:21:15.865Z,24.61
2018-08-24T03:22:15.938Z,24.58
2018-08-24T03:23:15.927Z,24.56
2018-08-24T03:24:15.910Z,24.48
2018-08-24T03:25:15.925Z,24.61
2018-08-24T03:26:15.953Z,24.58
2018-08-24T03:27:16.040Z,24.53
2018-08-24T03:28:15.960Z,24.48
2018-08-24T03:29:15.978Z,24.50
2018-08-24T03:30:15.978Z,24.46
2018-08-24T03:31:16.037Z,24.47
2018-08-24T03:32:16.044Z,24.47
2018-08-24T03:33:16.049Z,24.48
2018-08-24T03:34:16.089Z,24.48
2018-08-24T03:35:16.065Z,24.48
2018-08-24T03:36:16.074Z,24.50
2018-08-24T03:37:16.166Z,24.47
2018-08-24T03:38:16.099Z,24.40
2018-08-24T03:39:16.116Z,24.43
2018-08-24T03:40:16.136Z,24.53
2018-08-24T03:41:16.125Z,24.48
2018-08-24T03:42:16.173Z,24.46
2018-08-24T03:43:16.193Z,24.44
2018-08-24T03:44:16.235Z,24.43
2018-08-24T03:45:16.224Z,24.47
2018-08-24T03:46:16.215Z,24.41
2018-08-24T03:47:16.217Z,24.43
2018-08-24T03:48:16.274Z,24.44
2018-08-24T03:49:16.293Z,24.44
2018-08-24T03:50:16.272Z,24.46
2018-08-24T03:51:16.289Z,24.40
2018-08-24T03:52:16.294Z,24.36
2018-08-24T03:53:16.328Z,24.38
2018-08-24T03:54:16.502Z,24.40
2018-08-24T03:55:16.356Z,24.43
2018-08-24T03:56:16.342Z,24.38
2018-08-24T03:57:16.406Z,24.38
2018-08-24T03:58:16.351Z,24.36
2018-08-24T03:59:16.392Z,24.29
2018-08-24T04:00:16.392Z,24.31
2018-08-24T04:01:16.396Z,24.32
2018-08-24T04:02:16.431Z,24.26
2018-08-24T04:03:16.467Z,24.19
2018-08-24T04:04:16.566Z,24.19
2018-08-24T04:05:16.438Z,24.24
2018-08-24T04:06:16.468Z,24.21
2018-08-24T04:07:16.465Z,24.25
2018-08-24T04:08:16.577Z,24.19
2018-08-24T04:09:16.530Z,24.21
2018-08-24T04:10:16.506Z,24.19
2018-08-24T04:11:16.517Z,24.13
2018-08-24T04:12:16.530Z,24.19
2018-08-24T04:13:16.578Z,24.22
2018-08-24T04:14:17.261Z,24.21
2018-08-24T04:15:16.587Z,24.18
2018-08-24T04:16:16.613Z,24.14
2018-08-24T04:17:16.653Z,24.14
2018-08-24T04:18:16.631Z,24.25
2018-08-24T04:19:16.631Z,24.21
2018-08-24T04:20:16.653Z,24.14
2018-08-24T04:21:16.669Z,24.14
2018-08-24T04:22:16.690Z,24.21
2018-08-24T04:23:16.715Z,24.16
2018-08-24T04:24:16.768Z,24.07
2018-08-24T04:25:16.736Z,24.11
2018-08-24T04:26:16.717Z,24.11
2018-08-24T04:27:16.737Z,24.11
2018-08-24T04:28:16.734Z,24.13
2018-08-24T04:29:16.763Z,24.24
2018-08-24T04:30:16.796Z,24.16
2018-08-24T04:31:16.815Z,24.18
2018-08-24T04:32:16.811Z,24.13
2018-08-24T04:33:16.820Z,24.18
2018-08-24T04:34:16.963Z,24.13
2018-08-24T04:35:16.824Z,24.13
2018-08-24T04:36:16.875Z,24.19
2018-08-24T04:37:16.871Z,24.21
2018-08-24T04:38:16.895Z,24.21
2018-08-24T04:39:16.888Z,24.18
2018-08-24T04:40:17.084Z,24.21
2018-08-24T04:41:16.948Z,24.22
2018-08-24T04:42:16.955Z,24.21
2018-08-24T04:43:16.993Z,24.22
2018-08-24T04:44:16.957Z,24.16
2018-08-24T04:45:16.961Z,24.22
2018-08-24T04:46:16.971Z,24.21
2018-08-24T04:47:17.024Z,24.18
2018-08-24T04:48:17.006Z,24.10
2018-08-24T04:49:17.028Z,24.13
2018-08-24T04:50:17.015Z,24.14
2018-08-24T04:51:17.078Z,24.18
2018-08-24T04:52:17.090Z,24.11
2018-08-24T04:53:17.073Z,24.06
2018-08-24T04:54:17.096Z,24.06
2018-08-24T04:55:17.105Z,24.13
2018-08-24T04:56:17.328Z,24.09
2018-08-24T04:57:17.134Z,24.03
2018-08-24T04:58:17.123Z,24.00
2018-08-24T04:59:17.172Z,24.03
2018-08-24T05:00:17.160Z,24.09
2018-08-24T05:01:17.161Z,24.11
2018-08-24T05:02:17.180Z,24.06
2018-08-24T05:03:17.249Z,24.09
2018-08-24T05:04:17.206Z,24.03
2018-08-24T05:05:17.226Z,24.01
2018-08-24T05:06:17.240Z,24.01
2018-08-24T05:07:17.251Z,23.91
2018-08-24T05:08:17.292Z,23.86
2018-08-24T05:09:17.288Z,23.85
2018-08-24T05:10:17.324Z,23.82
2018-08-24T05:11:17.299Z,23.67
2018-08-24T05:12:17.304Z,23.70
2018-08-24T05:13:17.312Z,23.66
2018-08-24T05:14:17.319Z,23.70
2018-08-24T05:15:17.384Z,23.79
2018-08-24T05:16:17.387Z,23.82
2018-08-24T05:17:17.820Z,23.82
2018-08-24T05:18:17.400Z,23.81
2018-08-24T05:19:17.407Z,23.71
2018-08-24T05:20:17.395Z,23.73
2018-08-24T05:21:17.526Z,23.64
2018-08-24T05:22:17.431Z,23.59
2018-08-24T05:23:17.492Z,23.59
2018-08-24T05:24:17.476Z,23.59
2018-08-24T05:25:17.515Z,23.59
2018-08-24T05:26:17.469Z,23.52
2018-08-24T05:27:17.635Z,23.63
2018-08-24T05:28:17.558Z,23.55
2018-08-24T05:29:17.635Z,23.56
2018-08-24T05:30:17.537Z,23.54
2018-08-24T05:31:17.536Z,23.56
2018-08-24T05:32:17.574Z,23.52
2018-08-24T05:33:17.599Z,23.52
2018-08-24T05:34:17.611Z,23.55
2018-08-24T05:35:17.626Z,23.56
2018-08-24T05:36:17.642Z,23.62
2018-08-24T05:37:17.698Z,23.55
2018-08-24T05:38:17.624Z,23.62
2018-08-24T05:39:17.680Z,23.66
2018-08-24T05:40:17.679Z,23.52
2018-08-24T05:41:17.738Z,23.54
2018-08-24T05:42:17.701Z,23.58
2018-08-24T05:43:17.726Z,23.56
2018-08-24T05:44:17.716Z,23.59
2018-08-24T05:45:17.804Z,23.56
2018-08-24T05:46:17.749Z,23.56
2018-08-24T05:47:18.289Z,23.71
2018-08-24T05:48:17.758Z,23.63
2018-08-24T05:49:17.805Z,23.64
2018-08-24T05:50:17.875Z,23.70
2018-08-24T05:51:17.813Z,23.82
2018-08-24T05:52:17.916Z,23.84
2018-08-24T05:53:17.829Z,23.73
2018-08-24T05:54:17.893Z,23.81
2018-08-24T05:55:17.845Z,23.77
2018-08-24T05:56:17.945Z,23.73
2018-08-24T05:57:17.872Z,23.81
2018-08-24T05:58:17.915Z,23.84
2018-08-24T05:59:17.996Z,23.82
2018-08-24T06:00:17.945Z,23.77
2018-08-24T06:01:17.950Z,23.79
2018-08-24T06:02:18.003Z,23.85
2018-08-24T06:03:17.965Z,23.84
2018-08-24T06:04:18.005Z,23.94
2018-08-24T06:05:18.005Z,23.85
2018-08-24T06:06:18.006Z,23.89
2018-08-24T06:07:18.034Z,24.06
2018-08-24T06:08:18.019Z,24.06
2018-08-24T06:09:18.078Z,24.00
2018-08-24T06:10:18.058Z,24.04
2018-08-24T06:11:18.049Z,24.03
2018-08-24T06:12:18.141Z,24.11
2018-08-24T06:13:18.123Z,24.09
2018-08-24T06:14:18.140Z,24.01
2018-08-24T06:15:18.140Z,23.94
2018-08-24T06:16:18.137Z,23.92
2018-08-24T06:17:18.178Z,23.91
2018-08-24T06:18:18.165Z,24.06
2018-08-24T06:19:18.189Z,24.03
2018-08-24T06:20:18.198Z,24.06
2018-08-24T06:21:18.224Z,23.96
2018-08-24T06:22:18.256Z,24.03
2018-08-24T06:23:18.353Z,24.09
2018-08-24T06:24:18.283Z,24.07
2018-08-24T06:25:18.264Z,24.01
2018-08-24T06:26:18.374Z,24.06
2018-08-24T06:27:18.271Z,24.11
2018-08-24T06:28:18.300Z,24.06
2018-08-24T06:29:18.291Z,24.06
2018-08-24T06:30:18.333Z,24.14
2018-08-24T06:31:18.361Z,24.19
2018-08-24T06:32:18.388Z,24.14
2018-08-24T06:33:18.395Z,24.13
2018-08-24T06:34:18.377Z,24.13
2018-08-24T06:35:18.384Z,24.10
2018-08-24T06:36:18.474Z,24.24
2018-08-24T06:37:18.450Z,24.19
2018-08-24T06:38:18.461Z,24.16
2018-08-24T06:39:18.522Z,24.25
2018-08-24T06:40:18.474Z,24.29
2018-08-24T06:41:18.463Z,24.34
2018-08-24T06:42:18.517Z,24.36
2018-08-24T06:43:18.500Z,24.19
2018-08-24T06:44:18.539Z,24.24
2018-08-24T06:45:18.518Z,24.16
2018-08-24T06:46:18.548Z,24.24
2018-08-24T06:47:18.622Z,24.24
2018-08-24T06:48:18.561Z,24.24
2018-08-24T06:49:18.632Z,24.19
2018-08-24T06:50:18.614Z,23.99
2018-08-24T06:51:18.607Z,24.00
2018-08-24T06:52:18.623Z,24.06
2018-08-24T06:53:18.725Z,24.04
2018-08-24T06:54:18.672Z,24.07
2018-08-24T06:55:18.673Z,23.92
2018-08-24T06:56:18.676Z,24.07
2018-08-24T06:57:18.688Z,23.96
2018-08-24T06:58:18.678Z,24.10
2018-08-24T06:59:18.956Z,24.07
2018-08-24T07:00:18.743Z,24.06
2018-08-24T07:01:18.748Z,24.19
2018-08-24T07:02:18.749Z,24.19
2018-08-24T07:03:18.811Z,24.13
2018-08-24T07:04:18.756Z,24.28
2018-08-24T07:05:18.833Z,24.38
2018-08-24T07:06:18.795Z,24.40
2018-08-24T07:07:18.826Z,24.41
2018-08-24T07:08:18.831Z,24.43
2018-08-24T07:09:18.853Z,24.47
2018-08-24T07:10:18.898Z,24.47
2018-08-24T07:11:18.879Z,24.47
2018-08-24T07:12:18.882Z,24.48
2018-08-24T07:13:18.969Z,24.48
2018-08-24T07:14:18.938Z,24.43
2018-08-24T07:15:18.920Z,24.47
2018-08-24T07:16:19.033Z,24.61
2018-08-24T07:17:18.924Z,24.58
2018-08-24T07:18:18.969Z,24.58
2018-08-24T07:19:19.014Z,24.48
2018-08-24T07:20:18.986Z,24.63
2018-08-24T07:21:19.016Z,24.69
2018-08-24T07:22:19.032Z,24.77
2018-08-24T07:23:19.023Z,24.74
2018-08-24T07:24:19.068Z,24.75
2018-08-24T07:25:19.153Z,24.84
2018-08-24T07:26:19.071Z,24.81
2018-08-24T07:27:19.166Z,24.71
2018-08-24T07:28:19.099Z,24.88
2018-08-24T07:29:19.355Z,24.79
2018-08-24T07:30:19.155Z,24.84
2018-08-24T07:31:19.156Z,24.77
2018-08-24T07:32:19.174Z,24.75
2018-08-24T07:33:19.429Z,24.77
2018-08-24T07:34:19.212Z,24.74
2018-08-24T07:35:19.477Z,24.75
2018-08-24T07:36:19.196Z,24.85
2018-08-24T07:37:19.247Z,24.85
2018-08-24T07:38:19.206Z,24.74
2018-08-24T07:39:19.296Z,24.84
2018-08-24T07:40:19.321Z,24.88
2018-08-24T07:41:19.389Z,24.92
2018-08-24T07:42:19.372Z,24.94
2018-08-24T07:43:19.386Z,24.97
2018-08-24T07:44:19.375Z,25.00
2018-08-24T07:45:19.320Z,24.92
2018-08-24T07:46:19.386Z,24.94
2018-08-24T07:47:19.455Z,24.93
2018-08-24T07:48:19.374Z,24.97
2018-08-24T07:49:19.376Z,24.94
2018-08-24T07:50:19.401Z,24.97
2018-08-24T07:51:19.460Z,24.99
2018-08-24T07:52:19.469Z,25.06
2018-08-24T07:53:19.436Z,24.94
2018-08-24T07:54:19.438Z,25.00
2018-08-24T07:55:19.583Z,25.01
2018-08-24T07:56:19.464Z,25.04
2018-08-24T07:57:19.563Z,25.04
2018-08-24T07:58:19.563Z,25.11
2018-08-24T07:59:19.524Z,25.11
2018-08-24T08:00:19.520Z,25.16
2018-08-24T08:01:19.573Z,25.21
2018-08-24T08:02:19.579Z,25.21
2018-08-24T08:03:19.619Z,25.12
2018-08-24T08:04:19.588Z,25.29
2018-08-24T08:05:19.681Z,25.24
2018-08-24T08:06:19.615Z,25.18
2018-08-24T08:07:19.684Z,25.25
2018-08-24T08:08:20.383Z,25.18
2018-08-24T08:09:19.665Z,25.25
2018-08-24T08:10:19.661Z,25.24
2018-08-24T08:11:19.703Z,25.25
2018-08-24T08:12:19.881Z,25.37
2018-08-24T08:13:19.707Z,25.36
2018-08-24T08:14:19.765Z,25.39
2018-08-24T08:15:19.731Z,25.36
2018-08-24T08:16:19.812Z,25.55
2018-08-24T08:17:19.843Z,25.56
2018-08-24T08:18:19.882Z,25.58
2018-08-24T08:19:19.822Z,25.52
2018-08-24T08:20:19.839Z,25.68
2018-08-24T08:21:20.155Z,25.71
2018-08-24T08:22:19.832Z,25.56
2018-08-24T08:23:19.843Z,25.62
2018-08-24T08:24:21.130Z,25.71
2018-08-24T08:25:19.874Z,25.66
2018-08-24T08:26:19.898Z,25.46
2018-08-24T08:27:19.944Z,25.55
2018-08-24T08:28:19.912Z,25.49
2018-08-24T08:29:19.933Z,25.58
2018-08-24T08:30:19.974Z,25.56
2018-08-24T08:31:20.001Z,25.70
2018-08-24T08:32:19.963Z,25.66
2018-08-24T08:33:19.998Z,25.73
2018-08-24T08:34:20.003Z,25.68
2018-08-24T08:35:20.061Z,25.71
2018-08-24T08:36:20.081Z,25.63
2018-08-24T08:37:20.042Z,25.68
2018-08-24T08:38:20.172Z,25.63
2018-08-24T08:39:20.067Z,25.56
2018-08-24T08:40:20.082Z,25.58
2018-08-24T08:41:20.097Z,25.51
2018-08-24T08:42:20.131Z,25.58
2018-08-24T08:43:20.158Z,25.56
2018-08-24T08:44:20.149Z,25.62
2018-08-24T08:45:20.238Z,25.58
2018-08-24T08:46:20.185Z,25.58
2018-08-24T08:47:20.191Z,25.62
2018-08-24T08:48:20.199Z,25.66
2018-08-24T08:49:20.244Z,25.73
2018-08-24T08:50:20.470Z,25.73
2018-08-24T08:51:20.234Z,25.68
2018-08-24T08:52:20.278Z,25.70
2018-08-24T08:53:20.297Z,25.76
2018-08-24T08:54:20.274Z,25.77
2018-08-24T08:55:20.337Z,25.83
2018-08-24T08:56:20.372Z,25.85
2018-08-24T08:59:20.773Z,25.96
2018-08-24T09:00:20.722Z,25.95
2018-08-24T09:01:20.751Z,25.98
2018-08-24T09:02:20.775Z,25.91
2018-08-24T09:03:20.794Z,25.98
2018-08-24T09:04:20.794Z,26.01
2018-08-24T09:05:20.805Z,26.06
2018-08-24T09:06:20.872Z,26.01
2018-08-24T09:07:20.833Z,26.04
2018-08-24T09:08:20.891Z,26.15
2018-08-24T09:09:20.857Z,26.22
2018-08-24T09:10:20.943Z,26.13
2018-08-24T09:11:20.902Z,26.11
2018-08-24T09:12:20.897Z,26.23
2018-08-24T09:13:20.920Z,26.13
2018-08-24T09:14:20.916Z,26.15
2018-08-24T09:15:20.962Z,26.29
2018-08-24T09:16:20.978Z,26.34
2018-08-24T09:17:20.968Z,26.33
2018-08-24T09:18:21.048Z,26.39
2018-08-24T09:19:21.037Z,26.27
2018-08-24T09:20:21.028Z,26.27
2018-08-24T09:21:21.035Z,26.49
2018-08-24T09:22:21.025Z,26.42
2018-08-24T09:23:21.051Z,26.36
2018-08-24T09:24:21.076Z,26.31
2018-08-24T09:25:21.154Z,26.33
2018-08-24T09:26:21.144Z,26.51
2018-08-24T09:27:21.112Z,26.44
2018-08-24T09:28:21.137Z,26.45
2018-08-24T09:29:21.160Z,26.46
2018-08-24T09:30:21.157Z,26.45
2018-08-24T09:31:21.213Z,26.42
2018-08-24T09:32:21.259Z,26.33
2018-08-24T09:33:21.194Z,26.23
2018-08-24T09:34:21.247Z,26.23
2018-08-24T09:35:21.264Z,26.19
2018-08-24T09:36:21.289Z,26.24
2018-08-24T09:37:21.283Z,26.23
2018-08-24T09:38:21.279Z,26.22
2018-08-24T09:39:21.289Z,26.01
2018-08-24T09:40:21.314Z,26.07
2018-08-24T09:41:21.321Z,26.16
2018-08-24T09:42:21.368Z,26.04
2018-08-24T09:43:21.384Z,26.03
2018-08-24T09:44:21.356Z,26.03
2018-08-24T09:45:21.379Z,26.01
2018-08-24T09:46:21.433Z,25.98
2018-08-24T09:47:21.401Z,26.01
2018-08-24T09:48:21.418Z,25.99
2018-08-24T09:49:21.457Z,26.01
2018-08-24T09:50:21.464Z,25.98
2018-08-24T09:51:21.516Z,26.07
2018-08-24T09:52:21.483Z,26.06
2018-08-24T09:53:21.543Z,26.19
2018-08-24T09:54:21.528Z,26.24
2018-08-24T09:55:21.536Z,26.22
2018-08-24T09:56:21.549Z,26.22
2018-08-24T09:57:21.568Z,26.22
2018-08-24T09:58:21.631Z,26.30
2018-08-24T09:59:21.583Z,26.36
2018-08-24T10:00:21.615Z,26.34
2018-08-24T10:01:21.619Z,26.33
2018-08-24T10:02:21.645Z,26.37
2018-08-24T10:03:21.676Z,26.24
2018-08-24T10:04:21.669Z,26.49
2018-08-24T10:05:21.662Z,26.36
2018-08-24T10:06:21.703Z,26.39
2018-08-24T10:07:21.769Z,26.44
2018-08-24T10:08:21.765Z,26.46
2018-08-24T10:09:21.735Z,26.60
2018-08-24T10:10:21.787Z,26.44
2018-08-24T10:11:21.766Z,26.51
2018-08-24T10:12:21.772Z,26.48
2018-08-24T10:13:21.873Z,26.52
2018-08-24T17:39:24.012Z,24.11
2018-08-24T17:40:24.029Z,24.13
2018-08-24T17:41:24.053Z,24.10
2018-08-24T17:42:24.088Z,24.07
2018-08-24T17:43:24.048Z,24.04
2018-08-24T17:44:24.105Z,24.03
2018-08-24T17:45:24.058Z,23.99
2018-08-24T17:46:24.187Z,24.01
2018-08-24T17:47:24.113Z,24.00
2018-08-24T17:48:24.111Z,23.92
2018-08-24T17:49:25.511Z,23.94
2018-08-24T17:50:24.130Z,23.92
2018-08-24T17:51:24.147Z,23.89
2018-08-24T17:52:24.193Z,23.85
2018-08-24T17:53:24.152Z,23.89
2018-08-24T17:54:24.279Z,23.94
2018-08-24T17:55:24.183Z,23.91
2018-08-24T17:56:24.228Z,23.82
2018-08-24T17:57:24.238Z,23.88
2018-08-24T17:58:24.218Z,23.76
2018-08-24T17:59:24.288Z,23.76
2018-08-24T18:00:24.249Z,23.73
2018-08-24T18:01:24.312Z,23.73
2018-08-24T18:02:24.293Z,23.88
2018-08-24T18:03:24.330Z,23.82
2018-08-24T18:04:24.356Z,23.79
2018-08-24T18:05:24.344Z,23.95
2018-08-24T18:06:24.313Z,23.91
2018-08-24T18:07:24.437Z,23.82
2018-08-24T18:08:24.343Z,23.86
2018-08-24T18:09:24.437Z,23.73
2018-08-24T18:10:24.410Z,23.81
2018-08-24T18:11:24.426Z,23.77
2018-08-24T18:12:24.427Z,23.76
2018-08-24T18:13:24.401Z,23.82
2018-08-24T18:14:24.437Z,23.77
2018-08-24T18:15:24.507Z,23.81
2018-08-24T18:16:24.479Z,23.73
2018-08-24T18:17:24.456Z,23.71
2018-08-24T18:18:24.475Z,23.67
2018-08-24T18:19:24.479Z,23.73
2018-08-24T18:20:24.539Z,23.69
2018-08-24T18:21:24.688Z,23.70
2018-08-24T18:22:24.570Z,23.74
2018-08-24T18:23:24.521Z,23.66
2018-08-24T18:24:24.615Z,23.67
2018-08-24T18:25:24.554Z,23.67
2018-08-24T18:26:24.643Z,23.69
2018-08-24T18:27:24.623Z,23.67
2018-08-24T18:28:24.625Z,23.67
2018-08-24T18:29:24.606Z,23.64
2018-08-24T18:30:24.646Z,23.66
2018-08-24T18:31:24.653Z,23.62
2018-08-24T18:32:24.703Z,23.58
2018-08-24T18:33:24.722Z,23.58
2018-08-24T18:34:24.675Z,23.59
2018-08-24T18:35:24.690Z,23.59
2018-08-24T18:36:24.766Z,23.63
2018-08-24T18:37:24.758Z,23.63
2018-08-24T18:38:24.732Z,23.62
2018-08-24T18:39:24.763Z,23.58
2018-08-24T18:40:24.770Z,23.56
2018-08-24T18:41:24.880Z,23.52
2018-08-24T18:42:24.870Z,23.52
2018-08-24T18:43:24.779Z,23.54
2018-08-24T18:44:24.854Z,23.55
2018-08-24T18:45:24.815Z,23.55
2018-08-24T18:46:24.831Z,23.62
2018-08-24T18:47:24.844Z,23.56
2018-08-24T18:48:24.909Z,23.54
2018-08-24T18:49:24.888Z,23.51
2018-08-24T18:50:24.954Z,23.56
2018-08-24T18:51:24.949Z,23.49
2018-08-24T18:52:24.917Z,23.49
2018-08-24T18:53:24.927Z,23.54
2018-08-24T18:54:24.914Z,23.48
2018-08-24T18:55:24.955Z,23.48
2018-08-24T18:56:25.097Z,23.48
2018-08-24T18:57:24.971Z,23.40
2018-08-24T18:58:24.982Z,23.51
2018-08-24T18:59:25.037Z,23.47
2018-08-24T19:00:25.042Z,23.42
2018-08-24T19:01:25.082Z,23.40
2018-08-24T19:02:25.050Z,23.37
2018-08-24T19:03:25.046Z,23.52
2018-08-24T19:04:25.051Z,23.40
2018-08-24T19:05:25.109Z,23.39
2018-08-24T19:06:25.158Z,23.45
2018-08-24T19:07:25.164Z,23.42
2018-08-24T19:08:25.103Z,23.45
2018-08-24T19:09:25.127Z,23.44
2018-08-24T19:10:25.197Z,23.45
2018-08-24T19:11:25.129Z,23.47
2018-08-24T19:12:25.550Z,23.42
2018-08-24T19:13:25.169Z,23.54
2018-08-24T19:14:25.199Z,23.37
2018-08-24T19:15:25.187Z,23.51
2018-08-24T19:16:25.208Z,23.42
2018-08-24T19:17:25.242Z,23.55
2018-08-24T19:18:25.314Z,23.39
2018-08-24T19:19:25.261Z,23.56
2018-08-24T19:20:25.244Z,23.36
2018-08-24T19:21:25.542Z,23.36
2018-08-24T19:22:25.302Z,23.47
2018-08-24T19:23:25.331Z,23.54
2018-08-24T19:24:25.362Z,23.51
2018-08-24T19:25:25.316Z,23.34
2018-08-24T19:26:25.329Z,23.39
2018-08-24T19:27:25.341Z,23.37
2018-08-24T19:28:25.400Z,23.42
2018-08-24T19:29:25.387Z,23.37
2018-08-24T19:30:25.409Z,23.37
2018-08-24T19:31:25.429Z,23.40
2018-08-24T19:32:25.390Z,23.36
2018-08-24T19:33:25.472Z,23.32
2018-08-24T19:34:25.785Z,23.39
2018-08-24T19:35:25.445Z,23.40
2018-08-24T19:36:25.912Z,23.42
2018-08-24T19:37:25.513Z,23.42
2018-08-24T19:38:25.482Z,23.44
2018-08-24T19:39:25.801Z,23.34
2018-08-24T19:40:25.514Z,23.42
2018-08-24T19:41:25.759Z,23.40
2018-08-24T19:42:25.521Z,23.39
2018-08-24T19:43:25.554Z,23.33
2018-08-24T19:44:25.584Z,23.40
2018-08-24T19:45:25.568Z,23.37
2018-08-24T19:46:25.736Z,23.40
2018-08-24T19:47:25.720Z,23.40
2018-08-24T19:48:25.659Z,23.32
2018-08-24T19:49:25.724Z,23.29
2018-08-24T19:50:25.645Z,23.34
2018-08-24T19:51:25.726Z,23.21
2018-08-24T19:52:25.645Z,23.29
2018-08-24T19:53:25.765Z,23.32
2018-08-24T19:54:25.709Z,23.29
2018-08-24T19:55:25.919Z,23.29
2018-08-24T19:56:25.688Z,23.32
2018-08-24T19:57:25.897Z,23.28
2018-08-24T19:58:25.748Z,23.23
2018-08-24T19:59:25.795Z,23.25
2018-08-24T20:00:25.806Z,23.21
2018-08-24T20:01:25.968Z,23.26
2018-08-24T20:02:25.787Z,23.25
2018-08-24T20:03:25.804Z,23.26
2018-08-24T20:04:26.000Z,23.28
2018-08-24T20:05:25.815Z,23.29
2018-08-24T20:06:25.947Z,23.26
2018-08-24T20:07:25.931Z,23.32
2018-08-24T20:08:25.865Z,23.28
2018-08-24T20:09:25.893Z,23.32
2018-08-24T20:10:25.930Z,23.21
2018-08-24T20:11:25.897Z,23.23
2018-08-24T20:12:25.896Z,23.21
2018-08-24T20:13:25.921Z,23.18
2018-08-24T20:14:25.926Z,23.23
2018-08-24T20:15:25.982Z,23.25
2018-08-24T20:16:25.957Z,23.25
2018-08-24T20:17:26.021Z,23.25
2018-08-24T20:18:25.993Z,23.11
2018-08-24T20:19:25.991Z,23.25